createdAt,value
2022-10-15T00:02:37.557Z,0.00
2022-10-15T00:07:36.467Z,0.00
2022-10-15T00:12:36.326Z,0.00
2022-10-15T00:17:36.330Z,0.00
2022-10-15T00:22:36.192Z,0.00
2022-10-15T00:27:36.191Z,0.00
2022-10-15T00:32:36.074Z,0.00
2022-10-15T00:37:36.094Z,0.00
2022-10-15T00:42:36.029Z,0.00
2022-10-15T00:47:35.992Z,0.00
2022-10-15T00:52:35.950Z,0.00
2022-10-15T00:57:36.924Z,0.00
2022-10-15T01:02:35.881Z,0.00
2022-10-15T01:07:35.668Z,0.00
2022-10-15T01:12:35.632Z,0.00
2022-10-15T01:17:35.573Z,0.00
2022-10-15T01:22:35.638Z,0.00
2022-10-15T01:27:35.603Z,0.00
2022-10-15T01:32:35.541Z,0.00
2022-10-15T01:37:35.388Z,0.00
2022-10-15T01:42:35.410Z,0.00
2022-10-15T01:47:35.237Z,0.00
2022-10-15T01:52:35.176Z,0.00
2022-10-15T01:57:35.126Z,0.00
2022-10-15T02:02:35.159Z,0.00
2022-10-15T02:07:35.086Z,0.00
2022-10-15T02:12:35.024Z,0.00
2022-10-15T02:17:34.979Z,0.00
2022-10-15T02:22:35.040Z,0.00
2022-10-15T02:27:34.775Z,0.00
2022-10-15T02:32:34.733Z,0.00
2022-10-15T02:37:34.688Z,0.00
2022-10-15T02:42:34.625Z,0.00
2022-10-15T02:47:34.714Z,0.00
2022-10-15T02:52:34.662Z,0.00
2022-10-15T02:57:34.498Z,0.00
2022-10-15T03:02:34.446Z,0.00
2022-10-15T03:07:34.491Z,0.00
2022-10-15T03:12:34.306Z,0.00
2022-10-15T03:17:34.249Z,0.00
2022-10-15T03:22:34.189Z,0.00
2022-10-15T03:27:34.247Z,0.00
2022-10-15T03:32:36.324Z,0.00
2022-10-15T03:37:34.124Z,0.00
2022-10-15T03:42:34.058Z,0.00
2022-10-15T03:47:33.996Z,0.00
2022-10-15T03:52:33.866Z,0.00
2022-10-15T03:57:33.803Z,0.00
2022-10-15T04:02:33.744Z,0.00
2022-10-15T04:07:33.679Z,0.00
2022-10-15T04:12:34.812Z,0.00
2022-10-15T06:13:49.950Z,748.00
2022-10-15T06:18:50.318Z,1244.00
2022-10-15T06:23:50.992Z,1744.00
2022-10-15T06:28:49.542Z,1940.00
2022-10-15T06:33:48.911Z,2064.00
2022-10-15T06:38:48.915Z,2648.00
2022-10-15T06:43:48.894Z,3552.00
2022-10-15T06:48:48.851Z,4172.00
2022-10-15T06:53:48.725Z,4328.00
2022-10-15T06:58:48.779Z,4708.00
2022-10-15T07:03:49.650Z,5756.00
2022-10-15T07:08:48.667Z,6164.00
2022-10-15T07:13:48.529Z,9488.00
2022-10-15T07:18:48.487Z,5836.00
2022-10-15T07:23:48.409Z,3584.00
2022-10-15T07:28:48.448Z,5388.00
2022-10-15T07:33:48.342Z,5144.00
2022-10-15T07:38:48.300Z,5364.00
2022-10-15T07:43:50.165Z,6224.00
2022-10-15T07:48:48.147Z,9684.00
2022-10-15T07:53:48.116Z,12152.00
2022-10-15T07:58:48.107Z,10992.00
2022-10-15T08:03:48.007Z,14340.00
2022-10-15T08:08:47.928Z,12528.00
2022-10-15T08:13:47.853Z,9880.00
2022-10-15T08:18:47.969Z,14360.00
2022-10-15T08:23:47.803Z,13272.00
2022-10-15T08:28:47.777Z,12228.00
2022-10-15T08:33:47.883Z,11648.00
2022-10-15T08:38:47.655Z,13164.00
2022-10-15T08:43:47.563Z,27136.00
2022-10-15T08:48:47.568Z,32544.00
2022-10-15T08:53:47.487Z,49888.00
2022-10-15T08:58:47.600Z,27232.00
2022-10-15T09:03:49.575Z,25376.00
2022-10-15T09:08:47.448Z,23392.00
2022-10-15T09:13:47.350Z,12152.00
2022-10-15T09:18:47.167Z,12056.00
2022-10-15T09:23:47.174Z,18368.00
2022-10-15T09:28:47.197Z,11904.00
2022-10-15T09:33:47.196Z,16264.00
2022-10-15T09:38:48.018Z,19232.00
2022-10-15T09:43:47.034Z,14796.00
2022-10-15T09:48:46.770Z,24448.00
2022-10-15T09:53:47.120Z,21248.00
2022-10-15T09:58:46.789Z,12724.00
2022-10-15T10:03:46.792Z,14136.00
2022-10-15T10:08:46.720Z,20992.00
2022-10-15T10:13:47.610Z,22400.00
2022-10-15T10:18:55.339Z,18112.00
2022-10-15T10:23:46.457Z,12624.00
2022-10-15T10:28:46.391Z,13804.00
2022-10-15T10:33:46.387Z,17216.00
2022-10-15T10:38:46.461Z,26016.00
2022-10-15T10:43:46.348Z,17376.00
2022-10-15T10:48:46.120Z,18880.00
2022-10-15T10:53:46.075Z,25728.00
2022-10-15T10:58:46.211Z,13456.00
2022-10-15T11:03:46.003Z,13348.00
2022-10-15T11:08:45.889Z,15692.00
2022-10-15T11:13:45.891Z,20992.00
2022-10-15T11:18:45.811Z,18720.00
2022-10-15T11:23:45.782Z,17216.00
2022-10-15T11:28:45.857Z,20608.00
2022-10-15T11:33:45.701Z,26752.00
2022-10-15T11:38:45.586Z,17312.00
2022-10-15T11:43:45.497Z,22688.00
2022-10-15T11:48:45.439Z,20672.00
2022-10-15T11:53:45.503Z,24320.00
2022-10-15T11:58:46.394Z,16960.00
2022-10-15T12:03:45.425Z,25824.00
2022-10-15T12:08:45.234Z,14916.00
2022-10-15T12:13:45.153Z,11284.00
2022-10-15T12:18:45.116Z,8064.00
2022-10-15T12:23:45.068Z,12148.00
2022-10-15T12:28:45.085Z,22880.00
2022-10-15T12:33:45.016Z,24480.00
2022-10-15T12:38:44.949Z,18912.00
2022-10-15T12:43:44.883Z,13456.00
2022-10-15T12:48:44.803Z,13728.00
2022-10-15T12:53:44.773Z,15024.00
2022-10-15T12:58:44.699Z,10820.00
2022-10-15T13:03:44.623Z,11436.00
2022-10-15T13:08:44.559Z,14648.00
2022-10-15T13:13:44.510Z,15408.00
2022-10-15T13:18:44.489Z,19232.00
2022-10-15T13:23:44.596Z,8664.00
2022-10-15T13:28:44.526Z,13544.00
2022-10-15T13:33:44.486Z,14588.00
2022-10-15T13:38:47.316Z,13684.00
2022-10-15T13:43:44.185Z,13728.00
2022-10-15T13:53:44.172Z,10932.00
2022-10-15T13:58:44.092Z,8828.00
2022-10-15T14:03:43.960Z,8088.00
2022-10-15T14:08:44.090Z,6112.00
2022-10-15T14:13:43.929Z,9548.00
2022-10-15T14:18:48.139Z,6388.00
2022-10-15T14:23:44.739Z,5880.00
2022-10-15T14:28:43.804Z,7888.00
2022-10-15T14:33:43.764Z,8276.00
2022-10-15T14:38:44.734Z,6764.00
2022-10-15T14:43:43.625Z,8680.00
2022-10-15T14:48:43.571Z,7684.00
2022-10-15T14:53:43.404Z,7596.00
2022-10-15T14:58:43.567Z,3956.00
2022-10-15T15:03:43.406Z,2588.00
2022-10-15T15:08:43.283Z,4740.00
2022-10-15T15:13:43.260Z,4136.00
2022-10-15T15:18:43.214Z,5284.00
2022-10-15T15:23:43.202Z,1536.00
2022-10-15T15:28:43.108Z,1840.00
2022-10-15T15:33:42.965Z,2484.00
2022-10-15T15:38:43.072Z,3620.00
2022-10-15T15:43:43.019Z,3692.00
2022-10-15T15:48:42.848Z,4768.00
2022-10-15T15:53:43.518Z,3960.00
2022-10-15T15:58:43.090Z,3276.00
2022-10-15T16:03:42.654Z,3112.00
2022-10-15T16:08:42.731Z,1960.00
2022-10-15T16:13:42.632Z,1300.00
2022-10-15T16:18:42.698Z,1132.00
2022-10-15T16:23:42.515Z,1112.00
2022-10-15T16:28:42.498Z,644.00
2022-10-15T16:33:42.359Z,324.00
2022-10-15T16:38:44.412Z,216.00
2022-10-15T16:43:42.211Z,92.00
2022-10-15T16:48:42.228Z,56.00
2022-10-15T16:53:42.114Z,28.00
2022-10-15T16:58:42.163Z,12.00
2022-10-15T17:03:42.079Z,4.00
2022-10-15T17:08:41.940Z,4.00
2022-10-15T17:13:41.881Z,0.00
2022-10-15T17:18:41.898Z,0.00
2022-10-15T17:23:41.914Z,0.00
2022-10-15T17:28:41.831Z,0.00
2022-10-15T17:33:41.662Z,0.00
2022-10-15T17:38:41.621Z,0.00
2022-10-15T17:43:41.665Z,0.00
2022-10-15T17:48:41.600Z,0.00
2022-10-15T17:53:41.496Z,0.00
2022-10-15T17:58:41.484Z,0.00
2022-10-15T18:03:41.413Z,0.00
2022-10-15T18:08:41.311Z,0.00
2022-10-15T18:13:41.210Z,0.00
2022-10-15T18:18:41.202Z,0.00
2022-10-15T18:23:41.155Z,0.00
2022-10-15T18:28:41.236Z,0.00
2022-10-15T18:33:41.132Z,0.00
2022-10-15T18:38:41.092Z,0.00
2022-10-15T18:43:43.118Z,0.00
2022-10-15T18:48:40.863Z,0.00
2022-10-15T18:53:40.799Z,0.00
2022-10-15T18:58:40.728Z,0.00
2022-10-15T19:03:41.724Z,0.00
2022-10-15T19:08:40.621Z,0.00
2022-10-15T19:13:40.675Z,0.00
2022-10-15T19:18:40.640Z,0.00
2022-10-15T19:23:40.479Z,0.00
2022-10-15T19:28:40.468Z,0.00
2022-10-15T19:33:40.434Z,0.00
2022-10-15T19:38:40.491Z,0.00
2022-10-15T19:43:40.399Z,0.00
2022-10-15T19:48:40.218Z,0.00
2022-10-15T19:53:40.241Z,0.00
2022-10-15T19:58:40.097Z,0.00
2022-10-15T20:03:40.187Z,0.00
2022-10-15T20:08:40.155Z,0.00
2022-10-15T20:13:40.059Z,0.00
2022-10-15T20:18:39.895Z,0.00
2022-10-15T20:23:39.835Z,0.00
2022-10-15T20:28:39.850Z,0.00
2022-10-15T20:33:39.797Z,0.00
2022-10-15T20:38:39.794Z,0.00
2022-10-15T20:43:39.705Z,0.00
2022-10-15T20:48:39.587Z,0.00
2022-10-15T20:53:39.510Z,0.00
2022-10-15T20:58:39.513Z,0.00
2022-10-15T21:03:39.537Z,0.00
2022-10-15T21:08:39.492Z,0.00
2022-10-15T21:13:39.476Z,0.00
2022-10-15T21:18:39.372Z,0.00
2022-10-15T21:23:39.183Z,0.00
2022-10-15T21:28:39.313Z,0.00
2022-10-15T21:33:39.067Z,0.00
2022-10-15T21:38:39.143Z,0.00
2022-10-15T21:43:39.099Z,0.00
2022-10-15T21:48:40.065Z,0.00
2022-10-15T21:53:47.882Z,0.00
2022-10-15T21:58:38.752Z,0.00
2022-10-15T22:03:38.736Z,0.00
2022-10-15T22:08:38.759Z,0.00
2022-10-15T22:13:38.706Z,0.00
2022-10-15T22:18:38.622Z,0.00
2022-10-15T22:23:38.571Z,0.00
2022-10-15T22:28:38.481Z,0.00
2022-10-15T22:33:38.404Z,0.00
2022-10-15T22:38:38.344Z,0.00
2022-10-15T22:43:38.270Z,0.00
2022-10-15T22:48:38.270Z,0.00
2022-10-15T22:53:38.222Z,0.00
2022-10-15T22:58:38.163Z,0.00
2022-10-15T23:03:38.068Z,0.00
2022-10-15T23:08:38.025Z,0.00
2022-10-15T23:13:38.099Z,0.00
2022-10-15T23:18:38.024Z,0.00
2022-10-15T23:23:37.949Z,0.00
2022-10-15T23:28:37.950Z,0.00
2022-10-15T23:33:37.728Z,0.00
2022-10-15T23:38:37.747Z,0.00
2022-10-15T23:43:37.628Z,0.00
2022-10-15T23:48:37.557Z,0.00
2022-10-15T23:53:37.622Z,0.00
2022-10-15T23:58:37.479Z,0.00
